Time;durP1;ratioP1;P1;durP2;ratioP2;P2;SDS_P1;SDS_P2;PMS_P1;PMS_P2;Temp;Humidity;BMP_temperature;BMP_pressure;BME280_temperature;BME280_humidity;BME280_pressure;Samples;Min_cycle;Max_cycle;Signal;HPM_P1;HPM_P2
2022/10/25 00:01:26;;;;;;;17.92;4.53;;;;;;;11.82;100.00;101159.50;4955581;29;20087;-75
2022/10/25 00:03:52;;;;;;;17.20;4.85;;;;;;;11.88;100.00;101164.28;4955297;29;20094;-78
2022/10/25 00:06:18;;;;;;;12.45;4.50;;;;;;;11.93;100.00;101157.91;4955592;29;20499;-76
2022/10/25 00:08:43;;;;;;;19.13;4.95;;;;;;;11.85;100.00;101130.84;4955445;28;20031;-76
2022/10/25 00:11:16;;;;;;;13.70;4.43;;;;;;;12.05;100.00;101143.34;4955519;29;20027;-78
2022/10/25 00:13:42;;;;;;;11.10;3.78;;;;;;;12.17;100.00;101157.25;4955345;29;20338;-77
2022/10/25 00:16:16;;;;;;;13.32;4.22;;;;;;;12.13;100.00;101155.81;4955391;29;20193;-76
2022/10/25 00:18:41;;;;;;;14.52;4.28;;;;;;;12.06;100.00;101155.34;4955102;29;20110;-78
2022/10/25 00:21:06;;;;;;;13.50;4.30;;;;;;;12.14;100.00;101165.22;4955358;29;20567;-78
2022/10/25 00:23:32;;;;;;;8.10;3.78;;;;;;;12.13;100.00;101163.56;4955250;29;20110;-78
2022/10/25 00:26:02;;;;;;;13.68;4.15;;;;;;;12.03;100.00;101160.75;4955082;29;20495;-76
2022/10/25 00:28:27;;;;;;;10.90;4.00;;;;;;;12.09;100.00;101170.69;4969448;28;20552;-79
2022/10/25 00:31:05;;;;;;;13.85;4.22;;;;;;;12.03;100.00;101168.50;5015745;28;20022;-78
2022/10/25 00:33:31;;;;;;;11.85;4.47;;;;;;;12.11;100.00;101173.19;5015402;28;20030;-78
2022/10/25 00:36:24;;;;;;;13.27;4.28;;;;;;;12.17;100.00;101167.63;5015441;28;20030;-78
2022/10/25 00:38:50;;;;;;;14.40;4.65;;;;;;;12.20;100.00;101180.38;4994702;28;20441;-78
2022/10/25 00:41:18;;;;;;;14.70;4.95;;;;;;;12.23;100.00;101185.34;5015216;28;20029;-78
2022/10/25 00:43:49;;;;;;;13.27;3.97;;;;;;;12.24;100.00;101184.44;5015275;28;20540;-78
2022/10/25 00:46:30;;;;;;;13.38;3.78;;;;;;;12.31;100.00;101180.53;5015086;28;20026;-79
2022/10/25 00:49:07;;;;;;;14.27;4.38;;;;;;;12.30;100.00;101179.69;5014999;28;20033;-79
2022/10/25 00:51:37;;;;;;;11.55;3.63;;;;;;;12.38;100.00;101184.34;5014952;28;20053;-78
2022/10/25 00:54:04;;;;;;;12.27;4.05;;;;;;;12.41;100.00;101180.75;5015130;28;20026;-79
2022/10/25 00:56:35;;;;;;;15.20;4.57;;;;;;;12.42;100.00;101185.00;5015037;28;20026;-79
2022/10/25 00:59:05;;;;;;;12.98;3.95;;;;;;;12.38;100.00;101176.56;5014874;28;20403;-78
2022/10/25 01:01:31;;;;;;;15.52;3.63;;;;;;;12.38;100.00;101160.22;5014901;28;20088;-77
2022/10/25 01:04:00;;;;;;;18.65;4.13;;;;;;;12.50;100.00;101170.63;5014658;28;20482;-79
2022/10/25 01:06:35;;;;;;;13.95;4.55;;;;;;;12.54;100.00;101179.00;5014958;28;20030;-78
2022/10/25 01:09:02;;;;;;;15.70;3.40;;;;;;;12.49;100.00;101178.50;5014537;28;20030;-77
2022/10/25 01:11:28;;;;;;;14.50;3.83;;;;;;;12.50;100.00;101173.22;5014681;28;20050;-78
2022/10/25 01:13:54;;;;;;;15.02;3.95;;;;;;;12.50;100.00;101173.22;5014756;28;20025;-79
2022/10/25 01:16:50;;;;;;;14.38;3.75;;;;;;;12.60;100.00;101184.63;5014544;28;20022;-79
2022/10/25 01:19:48;;;;;;;16.15;3.75;;;;;;;12.63;100.00;101187.00;5014314;28;20113;-78
2022/10/25 01:22:27;;;;;;;17.90;3.63;;;;;;;12.65;100.00;101184.31;5014555;28;20026;-76
2022/10/25 01:25:13;;;;;;;17.00;3.97;;;;;;;12.72;100.00;101193.34;5014278;28;20429;-77
2022/10/25 01:28:08;;;;;;;16.45;4.22;;;;;;;12.71;100.00;101196.88;5014441;28;20468;-78
2022/10/25 01:30:48;;;;;;;17.00;4.53;;;;;;;12.66;100.00;101195.50;5014449;28;20385;-79
2022/10/25 01:33:27;;;;;;;13.30;4.05;;;;;;;12.50;100.00;101177.56;5014294;28;20036;-78
2022/10/25 01:36:33;;;;;;;14.68;4.20;;;;;;;12.58;100.00;101202.00;5014012;28;20026;-78
2022/10/25 01:39:19;;;;;;;10.50;3.30;;;;;;;12.59;100.00;101205.47;4934783;29;20030;-78
2022/10/25 01:42:01;;;;;;;16.20;3.97;;;;;;;12.60;100.00;101207.13;4934469;29;20420;-77
2022/10/25 01:44:30;;;;;;;;;;;;;;;12.63;100.00;101212.09;4935098;29;20043;-79
2022/10/25 01:47:15;;;;;;;17.30;3.60;;;;;;;12.63;100.00;101210.34;4934435;29;19922;-79
2022/10/25 01:49:46;;;;;;;16.17;4.00;;;;;;;12.66;100.00;101211.06;4934310;29;20040;-79
2022/10/25 01:52:13;;;;;;;16.35;3.42;;;;;;;12.65;100.00;101212.81;4934256;29;20551;-79
2022/10/25 01:54:39;;;;;;;19.02;3.28;;;;;;;12.28;100.00;101149.63;4934531;29;20440;-79
2022/10/25 01:57:14;;;;;;;15.35;3.75;;;;;;;12.55;100.00;101204.81;4934366;29;20028;-79
2022/10/25 01:59:45;;;;;;;11.30;3.33;;;;;;;12.57;100.00;101215.91;4934129;29;20054;-78
2022/10/25 02:02:22;;;;;;;21.52;4.13;;;;;;;12.52;100.00;101209.38;4934470;29;20039;-79
2022/10/25 02:05:05;;;;;;;15.23;3.88;;;;;;;12.53;100.00;101213.63;4917960;29;20079;-79
2022/10/25 02:07:38;;;;;;;14.80;3.55;;;;;;;12.53;100.00;101217.03;4934083;29;20608;-79
2022/10/25 02:10:08;;;;;;;13.68;3.75;;;;;;;12.51;100.00;101213.72;4934244;29;20396;-80
2022/10/25 02:12:55;;;;;;;12.88;3.78;;;;;;;12.58;100.00;101221.91;4959637;28;20038;-77
2022/10/25 02:15:30;;;;;;;21.02;4.25;;;;;;;12.58;100.00;101224.50;5013404;28;20026;-79
2022/10/25 02:17:59;;;;;;;16.17;3.42;;;;;;;12.63;100.00;101220.69;5013600;28;20339;-79
2022/10/25 02:20:27;;;;;;;16.13;4.18;;;;;;;12.50;100.00;101208.66;5013006;28;20544;-78
2022/10/25 02:22:53;;;;;;;14.32;3.30;;;;;;;12.55;100.00;101227.31;5013207;28;20425;-79
2022/10/25 02:25:20;;;;;;;13.93;4.00;;;;;;;12.48;100.00;101220.84;5013599;28;20025;-79
2022/10/25 02:27:49;;;;;;;12.80;3.72;;;;;;;12.42;100.00;101221.25;5013304;28;20026;-79
2022/10/25 02:30:14;;;;;;;15.20;3.25;;;;;;;12.40;100.00;101223.13;5013386;28;20079;-80
2022/10/25 02:32:39;;;;;;;14.32;3.13;;;;;;;12.36;100.00;101232.84;5013289;28;20100;-79
2022/10/25 02:35:14;;;;;;;15.45;3.08;;;;;;;12.26;100.00;101221.41;5013449;28;20021;-78
2022/10/25 02:37:39;;;;;;;15.23;3.25;;;;;;;12.38;100.00;101243.09;5013261;28;20121;-79
2022/10/25 02:40:05;;;;;;;15.63;3.13;;;;;;;12.34;100.00;101229.50;5013294;28;20530;-79
2022/10/25 02:42:31;;;;;;;15.75;3.45;;;;;;;11.95;100.00;101179.34;5013147;28;20026;-79
2022/10/25 02:44:56;;;;;;;17.83;4.13;;;;;;;12.23;100.00;101232.78;5013211;28;20029;-79
2022/10/25 02:47:21;;;;;;;18.05;3.38;;;;;;;12.18;100.00;101234.81;5012940;28;20025;-79
2022/10/25 02:49:46;;;;;;;13.95;3.50;;;;;;;12.11;100.00;101236.16;5013225;28;20039;-79
2022/10/25 02:52:12;;;;;;;14.13;3.83;;;;;;;12.04;100.00;101240.88;5012955;28;20022;-79
2022/10/25 02:54:37;;;;;;;11.77;3.30;;;;;;;11.88;100.00;101224.63;4995348;28;20544;-78
2022/10/25 02:57:02;;;;;;;15.27;3.50;;;;;;;11.96;100.00;101239.69;5013099;28;20509;-78
2022/10/25 02:59:28;;;;;;;14.73;4.05;;;;;;;11.91;100.00;101242.59;5012830;28;20097;-79
2022/10/25 03:01:53;;;;;;;15.35;4.28;;;;;;;11.88;100.00;101247.09;5013150;28;20026;-78
2022/10/25 03:04:19;;;;;;;18.27;3.85;;;;;;;11.80;100.00;101232.06;5013122;28;20053;-77
2022/10/25 03:06:44;;;;;;;12.43;3.97;;;;;;;11.82;100.00;101250.06;5012706;28;20123;-79
2022/10/25 03:09:09;;;;;;;12.93;3.70;;;;;;;11.71;100.00;101235.19;5012920;28;20037;-78
2022/10/25 03:11:35;;;;;;;14.60;4.43;;;;;;;11.77;100.00;101245.13;5012979;28;20152;-79
2022/10/25 03:14:00;;;;;;;15.43;3.55;;;;;;;11.67;100.00;101234.53;5012964;28;20053;-78
2022/10/25 03:16:25;;;;;;;15.60;3.80;;;;;;;11.69;100.00;101255.94;5012876;28;20022;-79
2022/10/25 03:18:51;;;;;;;13.90;3.78;;;;;;;11.66;100.00;101252.72;5012879;28;20045;-78
2022/10/25 03:21:16;;;;;;;14.20;4.32;;;;;;;11.39;100.00;101222.41;5012745;28;20053;-78
2022/10/25 03:23:41;;;;;;;14.00;3.85;;;;;;;11.50;100.00;101239.88;5012992;28;20036;-79
2022/10/25 03:26:07;;;;;;;14.57;4.20;;;;;;;11.56;100.00;101262.78;5012885;28;20040;-78
2022/10/25 03:28:32;;;;;;;14.40;4.28;;;;;;;11.56;100.00;101273.13;5012861;28;20025;-79
2022/10/25 03:30:59;;;;;;;15.02;4.68;;;;;;;11.45;100.00;101255.69;5012519;28;20104;-76
2022/10/25 03:33:25;;;;;;;17.27;4.45;;;;;;;11.46;100.00;101257.34;5013944;28;20025;-77
2022/10/25 03:35:52;;;;;;;14.82;4.68;;;;;;;11.47;100.00;101268.50;5016567;28;20030;-77
2022/10/25 03:38:17;;;;;;;19.25;4.72;;;;;;;11.44;100.00;101274.72;5016380;28;20529;-79
2022/10/25 03:40:43;;;;;;;12.93;4.25;;;;;;;11.40;100.00;101274.97;5016378;28;20028;-77
2022/10/25 03:43:08;;;;;;;11.68;3.95;;;;;;;11.39;100.00;101281.91;5016210;28;20071;-78
2022/10/25 03:45:34;;;;;;;14.95;4.45;;;;;;;11.39;100.00;101289.66;4998613;28;20390;-78
2022/10/25 03:47:59;;;;;;;11.13;4.00;;;;;;;11.38;100.00;101285.41;5016358;28;20034;-79
2022/10/25 03:50:25;;;;;;;15.27;4.20;;;;;;;11.36;100.00;101284.66;5084389;23;20064;-76
2022/10/25 03:52:50;;;;;;;18.40;4.57;;;;;;;11.34;100.00;101283.94;5035802;28;20041;-78
2022/10/25 03:55:16;;;;;;;14.90;4.00;;;;;;;11.32;100.00;101296.13;5018064;28;20033;-77
2022/10/25 03:57:41;;;;;;;11.65;4.00;;;;;;;11.20;100.00;101273.56;5018077;28;20112;-79
2022/10/25 04:00:07;;;;;;;18.25;4.20;;;;;;;11.28;100.00;101298.97;5035892;28;20030;-79
2022/10/25 04:02:32;;;;;;;13.20;4.18;;;;;;;11.27;100.00;101305.88;5035588;28;20021;-78
2022/10/25 04:04:58;;;;;;;12.48;3.80;;;;;;;11.27;100.00;101303.31;5035990;28;20036;-78
2022/10/25 04:07:23;;;;;;;15.43;4.25;;;;;;;11.26;100.00;101300.81;5035583;28;20029;-79
2022/10/25 04:09:48;;;;;;;14.30;4.63;;;;;;;11.14;100.00;101282.50;5035739;28;20113;-78
2022/10/25 04:12:14;;;;;;;15.60;4.07;;;;;;;11.23;100.00;101298.41;5035577;28;20022;-79
2022/10/25 04:14:39;;;;;;;16.02;4.82;;;;;;;11.16;100.00;101283.25;5035618;28;20377;-79
2022/10/25 04:17:04;;;;;;;16.33;4.78;;;;;;;11.10;100.00;101283.59;5035527;28;20029;-77
2022/10/25 04:19:29;;;;;;;13.30;4.00;;;;;;;11.18;100.00;101306.41;5035404;28;20044;-78
2022/10/25 04:21:56;;;;;;;14.93;4.25;;;;;;;11.03;100.00;101291.81;5035544;28;20033;-78
2022/10/25 04:24:21;;;;;;;14.70;3.85;;;;;;;10.99;100.00;101293.72;5035217;28;20060;-79
2022/10/25 04:26:47;;;;;;;11.18;3.65;;;;;;;11.14;100.00;101325.63;5035193;28;20458;-78
2022/10/25 04:29:12;;;;;;;13.20;4.63;;;;;;;11.03;100.00;101297.81;5035349;28;20033;-79
2022/10/25 04:31:38;;;;;;;16.58;3.95;;;;;;;11.02;100.00;101306.50;5035389;28;20083;-79
2022/10/25 04:34:03;;;;;;;16.65;4.65;;;;;;;11.02;100.00;101295.31;5035332;28;20551;-79
2022/10/25 04:36:29;;;;;;;15.82;4.13;;;;;;;10.96;100.00;101295.66;5035311;28;20477;-79
2022/10/25 04:38:54;;;;;;;14.32;4.18;;;;;;;11.06;100.00;101318.31;5035036;28;20451;-80
2022/10/25 04:41:20;;;;;;;15.60;4.32;;;;;;;11.03;100.00;101321.06;5035104;28;20065;-79
2022/10/25 04:43:46;;;;;;;11.38;4.22;;;;;;;10.99;100.00;101327.31;5034768;28;20121;-80
2022/10/25 04:46:13;;;;;;;11.38;3.83;;;;;;;10.98;100.00;101322.25;5035031;28;20474;-76
2022/10/25 04:48:40;;;;;;;10.95;4.45;;;;;;;10.93;100.00;101322.50;5034960;28;20165;-75
2022/10/25 04:51:06;;;;;;;18.95;4.15;;;;;;;10.94;100.00;101319.00;5016895;28;20054;-78
2022/10/25 04:53:32;;;;;;;18.77;4.45;;;;;;;10.95;100.00;101325.84;5034573;28;20033;-76
2022/10/25 04:56:03;;;;;;;11.80;4.40;;;;;;;10.96;100.00;101326.66;5035031;28;20029;-78
2022/10/25 04:58:29;;;;;;;13.90;4.50;;;;;;;10.89;100.00;101321.00;5034485;28;20034;-78
2022/10/25 05:01:02;;;;;;;16.15;4.70;;;;;;;10.90;100.00;101339.00;5034835;28;20029;-78
2022/10/25 05:03:29;;;;;;;15.63;4.70;;;;;;;10.85;100.00;101333.28;5034555;28;20131;-78
2022/10/25 05:05:54;;;;;;;16.55;4.60;;;;;;;10.81;100.00;101330.94;5034610;28;20155;-76
2022/10/25 05:08:19;;;;;;;14.32;5.10;;;;;;;10.82;100.00;101337.78;5034368;28;20108;-75
2022/10/25 05:10:53;;;;;;;14.57;5.40;;;;;;;10.84;100.00;101344.53;5034606;28;20034;-79
2022/10/25 05:13:19;;;;;;;17.90;5.72;;;;;;;10.82;100.00;101330.88;5034612;28;20495;-76
2022/10/25 05:15:52;;;;;;;16.40;5.57;;;;;;;10.84;100.00;101351.44;5034534;28;20108;-78
2022/10/25 05:18:17;;;;;;;17.05;5.70;;;;;;;10.80;100.00;101343.00;5034324;28;20469;-78
2022/10/25 05:20:43;;;;;;;17.55;6.07;;;;;;;10.82;100.00;101356.72;5034409;28;20117;-78
2022/10/25 05:23:08;;;;;;;16.27;5.85;;;;;;;10.79;100.00;101358.59;5034176;28;20104;-77
2022/10/25 05:25:34;;;;;;;18.40;5.47;;;;;;;10.81;100.00;101364.50;5015481;28;20497;-78
2022/10/25 05:27:59;;;;;;;18.40;6.20;;;;;;;10.69;100.00;101339.38;5034013;28;20075;-79
2022/10/25 05:30:24;;;;;;;16.10;6.25;;;;;;;10.69;100.00;101347.94;5034209;28;20049;-77
2022/10/25 05:32:51;;;;;;;17.55;5.65;;;;;;;10.79;100.00;101369.78;5034197;28;20022;-78
2022/10/25 05:35:16;;;;;;;17.38;5.82;;;;;;;10.67;100.00;101351.53;5034220;28;20033;-78
2022/10/25 05:37:41;;;;;;;16.92;5.70;;;;;;;10.65;100.00;101345.63;5033995;28;20544;-78
2022/10/25 05:40:07;;;;;;;15.63;5.53;;;;;;;10.65;100.00;101343.03;5033939;28;20026;-77
2022/10/25 05:42:33;;;;;;;18.35;5.82;;;;;;;10.62;100.00;101346.63;5033828;28;20060;-81
2022/10/25 05:44:58;;;;;;;14.15;5.32;;;;;;;10.72;100.00;101367.63;5033976;28;20025;-77
2022/10/25 05:47:23;;;;;;;19.70;6.05;;;;;;;10.73;100.00;101374.47;5033817;28;20071;-78
2022/10/25 05:49:49;;;;;;;17.23;5.65;;;;;;;10.56;100.00;101349.53;5015666;28;20064;-78
2022/10/25 05:52:14;;;;;;;17.80;6.10;;;;;;;10.72;100.00;101377.97;5033674;28;20076;-77
2022/10/25 05:54:39;;;;;;;17.92;5.68;;;;;;;10.66;100.00;101375.72;5033558;28;20029;-79
2022/10/25 05:57:04;;;;;;;18.83;6.03;;;;;;;10.73;100.00;101382.22;5015349;28;20539;-78
2022/10/25 05:59:30;;;;;;;16.98;6.03;;;;;;;10.74;100.00;101387.28;5033643;28;20029;-79
2022/10/25 06:01:55;;;;;;;15.73;4.95;;;;;;;10.72;100.00;101385.72;5033650;28;20029;-79
2022/10/25 06:04:20;;;;;;;15.57;6.43;;;;;;;10.75;100.00;101390.69;5015617;28;20022;-79
2022/10/25 06:06:46;;;;;;;18.98;5.53;;;;;;;10.80;100.00;101399.03;5033464;28;20118;-79
2022/10/25 06:09:12;;;;;;;17.77;6.10;;;;;;;10.69;100.00;101378.13;5033381;28;20109;-78
2022/10/25 06:11:38;;;;;;;17.55;5.95;;;;;;;10.78;100.00;101401.69;5015994;28;20428;-79
2022/10/25 06:14:04;;;;;;;21.63;6.18;;;;;;;10.51;100.00;101349.78;5033347;28;20021;-78
2022/10/25 06:16:30;;;;;;;16.27;6.18;;;;;;;10.77;100.00;101407.78;5033323;28;20025;-79
2022/10/25 06:18:55;;;;;;;20.55;7.32;;;;;;;10.65;100.00;101386.97;5033047;28;20500;-79
2022/10/25 06:21:23;;;;;;;23.90;8.32;;;;;;;10.63;100.00;101395.63;5033278;28;20033;-79
2022/10/25 06:23:49;;;;;;;16.23;7.20;;;;;;;10.71;100.00;101412.44;5033331;28;20033;-78
2022/10/25 06:26:19;;;;;;;27.52;8.43;;;;;;;10.59;100.00;101391.53;5015234;28;20401;-79
2022/10/25 06:28:45;;;;;;;23.80;9.13;;;;;;;10.76;100.00;101421.63;5032327;28;20026;-79
2022/10/25 06:31:13;;;;;;;19.33;8.50;;;;;;;10.71;100.00;101415.84;5033168;28;20535;-74
2022/10/25 06:33:39;;;;;;;20.35;8.57;;;;;;;10.74;100.00;101430.38;5033295;28;20029;-76
2022/10/25 06:36:06;;;;;;;27.55;9.38;;;;;;;10.74;100.00;101438.13;5033102;28;20103;-78
2022/10/25 06:38:32;;;;;;;25.70;9.45;;;;;;;10.57;100.00;101406.28;5015175;28;20029;-77
2022/10/25 06:41:05;;;;;;;23.63;10.38;;;;;;;10.76;100.00;101436.28;5032742;28;20385;-80
2022/10/25 06:43:33;;;;;;;25.00;11.13;;;;;;;10.77;100.00;101431.03;5033000;28;20021;-80
2022/10/25 06:46:11;;;;;;;21.23;9.75;;;;;;;10.84;100.00;101445.28;5032672;28;20029;-79
2022/10/25 06:48:36;;;;;;;40.65;11.95;;;;;;;10.88;100.00;101438.19;5033142;28;20366;-79
2022/10/25 06:51:04;;;;;;;26.15;11.27;;;;;;;10.91;100.00;101438.03;5032668;28;20129;-76
2022/10/25 06:53:29;;;;;;;27.75;11.55;;;;;;;10.93;100.00;101443.13;5032996;28;20043;-80
2022/10/25 06:56:02;;;;;;;27.67;11.98;;;;;;;10.77;100.00;101418.13;5032628;28;20380;-80
2022/10/25 06:58:31;;;;;;;24.63;11.30;;;;;;;10.85;100.00;101438.38;5032731;28;20026;-80
2022/10/25 07:01:07;;;;;;;28.77;11.30;;;;;;;10.79;100.00;101439.53;5032856;28;20104;-80
2022/10/25 07:03:36;;;;;;;21.75;11.27;;;;;;;10.91;100.00;101456.09;5032915;28;20033;-79
2022/10/25 07:06:05;;;;;;;28.00;11.10;;;;;;;10.92;100.00;101452.63;5032841;28;20509;-78
2022/10/25 07:08:31;;;;;;;24.95;11.18;;;;;;;10.95;100.00;101460.22;5035708;28;20025;-81
2022/10/25 07:10:56;;;;;;;24.88;10.63;;;;;;;11.00;100.00;101459.94;5037026;28;20024;-79
2022/10/25 07:13:22;;;;;;;25.25;10.75;;;;;;;11.02;100.00;101469.31;5036685;28;20029;-80
2022/10/25 07:15:47;;;;;;;22.85;10.60;;;;;;;11.05;100.00;101476.88;5036547;28;20036;-80
2022/10/25 07:18:13;;;;;;;32.08;11.02;;;;;;;10.90;100.00;101450.09;5036752;28;20489;-80
2022/10/25 07:20:38;;;;;;;27.20;11.02;;;;;;;10.95;100.00;101456.78;5036653;28;20068;-78
2022/10/25 07:23:03;;;;;;;24.35;10.93;;;;;;;11.10;100.00;101480.03;5036528;28;20117;-80
2022/10/25 07:25:29;;;;;;;25.35;10.35;;;;;;;11.14;100.00;101481.56;5036471;28;20112;-80
2022/10/25 07:27:55;;;;;;;27.20;10.75;;;;;;;11.00;100.00;101449.59;5036495;28;20037;-78
2022/10/25 07:30:20;;;;;;;28.63;13.48;;;;;;;11.29;100.00;101479.84;5036684;28;20351;-88
2022/10/25 07:32:46;;;;;;;31.40;12.35;;;;;;;11.51;100.00;101487.28;5076628;22;20561;-83
2022/10/25 07:35:11;;;;;;;32.55;13.05;;;;;;;11.61;100.00;101491.00;5016706;28;20065;-84
2022/10/25 07:37:36;;;;;;;31.35;12.90;;;;;;;11.70;100.00;101494.78;5016723;28;20034;-76
2022/10/25 07:40:02;;;;;;;29.58;12.02;;;;;;;11.83;100.00;101498.41;5016678;28;20385;-79
2022/10/25 07:42:27;;;;;;;30.75;12.55;;;;;;;11.95;100.00;101502.03;5016276;28;20045;-77
2022/10/25 07:44:52;;;;;;;31.83;13.90;;;;;;;12.10;100.00;101500.31;5016573;28;20045;-76
2022/10/25 07:47:18;;;;;;;24.42;11.52;;;;;;;12.23;100.00;101488.31;5016260;28;20033;-79
2022/10/25 07:49:43;;;;;;;28.70;12.65;;;;;;;12.38;100.00;101494.31;5016526;28;20026;-76
2022/10/25 07:52:10;;;;;;;26.88;12.25;;;;;;;12.47;100.00;101504.13;5016608;28;20025;-80
2022/10/25 07:54:35;;;;;;;25.52;12.25;;;;;;;12.30;100.00;101461.13;5016314;28;20470;-79
2022/10/25 07:57:00;;;;;;;29.83;11.82;;;;;;;12.54;100.00;101495.06;5016065;28;20022;-78
2022/10/25 07:59:26;;;;;;;35.17;11.85;;;;;;;12.67;100.00;101510.69;5016238;28;20482;-79
2022/10/25 08:01:51;;;;;;;35.03;12.73;;;;;;;12.53;100.00;101481.28;5016065;28;20090;-79
2022/10/25 08:04:19;;;;;;;25.95;12.50;;;;;;;12.51;100.00;101482.31;5016406;28;20037;-77
2022/10/25 08:06:44;;;;;;;24.67;12.57;;;;;;;12.68;100.00;101502.81;5038933;23;20068;-79
2022/10/25 08:09:09;;;;;;;26.60;12.27;;;;;;;12.76;100.00;101523.09;5035694;28;20026;-78
2022/10/25 08:11:35;;;;;;;30.13;12.48;;;;;;;12.88;100.00;101522.34;5035408;28;20112;-79
2022/10/25 08:14:00;;;;;;;25.83;12.65;;;;;;;12.99;100.00;101522.53;5035625;28;20037;-78
2022/10/25 08:16:25;;;;;;;26.52;12.88;;;;;;;12.81;100.00;101487.38;5035751;28;20064;-79
2022/10/25 08:18:51;;;;;;;29.85;13.77;;;;;;;13.07;100.00;101527.22;5034726;28;20029;-75
2022/10/25 08:21:16;;;;;;;26.63;12.88;;;;;;;12.79;100.00;101481.47;5035766;28;20025;-78
2022/10/25 08:23:41;;;;;;;31.58;14.00;;;;;;;13.02;100.00;101519.75;5035565;28;20065;-79
2022/10/25 08:26:07;;;;;;;30.20;14.93;;;;;;;12.84;100.00;101500.97;5035455;28;20186;-78
2022/10/25 08:28:32;;;;;;;28.05;14.27;;;;;;;12.95;100.00;101520.22;5035766;28;20079;-80
2022/10/25 08:30:59;;;;;;;32.42;14.25;;;;;;;12.93;100.00;101517.72;5035389;28;20029;-76
2022/10/25 08:33:25;;;;;;;27.45;14.38;;;;;;;12.85;100.00;101515.59;5035371;28;20032;-78
2022/10/25 08:35:50;;;;;;;28.67;14.43;;;;;;;12.88;100.00;101522.34;5035223;28;20022;-78
2022/10/25 08:38:17;;;;;;;32.85;15.35;;;;;;;12.88;100.00;101530.97;5035317;28;20026;-77
2022/10/25 08:41:01;;;;;;;31.23;13.93;;;;;;;12.89;100.00;101531.81;5035270;28;20473;-76
2022/10/25 08:43:54;;;;;;;29.23;13.30;;;;;;;12.98;100.00;101531.25;5035076;28;20033;-78
2022/10/25 08:46:32;;;;;;;27.30;13.35;;;;;;;12.99;100.00;101532.06;5034979;28;20113;-80
2022/10/25 08:49:16;;;;;;;29.02;13.23;;;;;;;13.04;100.00;101532.59;5035131;28;20033;-77
2022/10/25 08:51:45;;;;;;;24.98;12.43;;;;;;;13.13;100.00;101538.06;5034993;28;20120;-76
2022/10/25 08:54:29;;;;;;;28.10;12.43;;;;;;;13.34;100.00;101541.09;5034866;28;20034;-80
2022/10/25 08:57:05;;;;;;;23.90;11.98;;;;;;;13.53;100.00;101542.53;5035196;28;20029;-78
2022/10/25 08:59:36;;;;;;;27.95;11.88;;;;;;;13.69;100.00;101543.22;5034761;28;20017;-79
2022/10/25 09:02:08;;;;;;;28.52;11.95;;;;;;;13.64;100.00;101527.09;5035001;28;20044;-78
2022/10/25 09:04:34;;;;;;;23.73;11.85;;;;;;;13.59;100.00;101518.78;5035054;28;20082;-77
2022/10/25 09:07:18;;;;;;;22.63;11.40;;;;;;;13.76;100.00;101554.84;5034220;28;20049;-74
2022/10/25 09:10:01;;;;;;;22.23;12.02;;;;;;;13.72;100.00;101556.81;5034403;28;20080;-75
2022/10/25 09:13:03;;;;;;;25.73;11.30;;;;;;;13.69;100.00;101557.03;5034574;28;20044;-77
2022/10/25 09:15:45;;;;;;;22.52;11.13;;;;;;;13.71;100.00;101560.34;5034449;28;20025;-76
2022/10/25 09:18:14;;;;;;;;;;;;;;;13.77;100.00;101559.97;5035025;28;20030;-75
2022/10/25 09:20:50;;;;;;;31.42;11.43;;;;;;;13.78;100.00;101565.97;5034388;28;20051;-80
2022/10/25 09:23:27;;;;;;;24.83;10.50;;;;;;;13.63;100.00;101553.97;5034415;28;20024;-76
2022/10/25 09:25:58;;;;;;;21.65;10.18;;;;;;;13.71;100.00;101573.31;5016424;28;20037;-76
2022/10/25 09:28:31;;;;;;;34.15;11.88;;;;;;;13.89;100.00;101579.09;5034088;28;20087;-77
2022/10/25 09:31:00;;;;;;;21.05;9.57;;;;;;;14.10;100.00;101581.22;5034273;28;20033;-78
2022/10/25 09:33:29;;;;;;;25.15;10.20;;;;;;;14.18;100.00;101597.16;5034321;28;20052;-76
2022/10/25 09:35:59;;;;;;;20.00;9.77;;;;;;;14.20;100.00;101593.50;5034051;28;20025;-78
2022/10/25 09:38:36;;;;;;;23.55;9.23;;;;;;;14.07;100.00;101577.06;5034174;28;20049;-79
2022/10/25 09:41:31;;;;;;;21.02;9.38;;;;;;;14.01;100.00;101562.72;5031602;28;20021;-75
2022/10/25 09:44:23;;;;;;;22.25;8.55;;;;;;;14.17;100.00;101588.53;5032170;28;20477;-77
2022/10/25 09:46:56;;;;;;;20.98;7.72;;;;;;;14.15;100.00;101579.13;5033879;28;20040;-76
2022/10/25 09:49:46;;;;;;;23.70;7.75;;;;;;;14.10;100.00;101581.22;5033911;28;20025;-71
2022/10/25 09:52:21;;;;;;;18.73;7.15;;;;;;;14.06;100.00;101591.81;5023128;28;20071;-71
2022/10/25 09:54:59;;;;;;;20.77;7.60;;;;;;;14.00;100.00;101581.00;5033970;28;20064;-72
2022/10/25 09:57:24;;;;;;;18.35;6.90;;;;;;;14.16;100.00;101596.38;5033688;28;20458;-70
2022/10/25 09:59:50;;;;;;;17.33;7.22;;;;;;;14.20;100.00;101600.47;5033596;28;20036;-71
2022/10/25 10:02:24;;;;;;;17.05;6.47;;;;;;;14.16;100.00;101588.59;5033663;28;20032;-78
2022/10/25 10:04:50;;;;;;;20.40;7.43;;;;;;;13.89;99.24;101562.69;5033281;28;20477;-79
2022/10/25 10:07:19;;;;;;;14.65;7.55;;;;;;;14.01;100.00;101596.47;5033169;28;20519;-77
2022/10/25 10:09:45;;;;;;;20.13;7.57;;;;;;;13.96;100.00;101595.94;5033454;28;20362;-77
2022/10/25 10:12:26;;;;;;;19.63;7.30;;;;;;;14.00;100.00;101583.59;5033351;28;20038;-78
2022/10/25 10:14:57;;;;;;;17.75;7.07;;;;;;;14.20;100.00;101606.50;5033143;28;20478;-75
2022/10/25 10:17:24;;;;;;;21.85;7.15;;;;;;;14.31;100.00;101610.97;5033509;28;20017;-85
2022/10/25 10:20:13;;;;;;;18.70;7.32;;;;;;;14.47;100.00;101616.88;5033543;28;20464;-80
2022/10/25 10:22:53;;;;;;;22.90;8.02;;;;;;;14.49;99.32;101614.16;5033415;28;20025;-85
2022/10/25 10:25:23;;;;;;;17.73;7.13;;;;;;;14.46;98.99;101609.19;5034105;28;20072;-82
2022/10/25 10:27:54;;;;;;;18.13;6.57;;;;;;;14.48;98.56;101615.94;5015752;28;20032;-85
2022/10/25 10:30:38;;;;;;;16.98;7.03;;;;;;;14.45;98.83;101597.09;5033162;28;20420;-83
2022/10/25 10:33:08;;;;;;;20.63;5.65;;;;;;;14.60;98.52;101620.28;5014721;28;20474;-85
2022/10/25 10:35:35;;;;;;;17.02;6.70;;;;;;;14.59;98.39;101634.22;5033489;28;20033;-86
2022/10/25 10:38:19;;;;;;;14.43;5.68;;;;;;;14.57;98.61;101632.69;5033603;28;20030;-78
2022/10/25 10:40:45;;;;;;;16.23;5.53;;;;;;;14.45;98.73;101607.47;5033385;28;20018;-86
2022/10/25 10:43:27;;;;;;;15.02;5.88;;;;;;;14.73;98.78;101625.50;5032920;28;20562;-86
2022/10/25 10:45:59;;;;;;;19.00;6.05;;;;;;;14.76;97.27;101607.09;5032682;28;20094;-84
2022/10/25 10:48:24;;;;;;;21.77;7.32;;;;;;;15.06;96.72;101631.94;5033026;28;20040;-79
2022/10/25 10:50:50;;;;;;;16.20;6.20;;;;;;;15.12;96.20;101634.94;5032969;28;20025;-84
2022/10/25 10:53:28;;;;;;;15.07;5.30;;;;;;;15.22;95.36;101640.34;5033095;28;20029;-85
2022/10/25 10:55:55;;;;;;;13.35;5.07;;;;;;;15.13;93.95;101607.97;5033041;28;20053;-84
2022/10/25 10:58:35;;;;;;;15.02;4.68;;;;;;;15.12;92.69;101601.13;5032881;28;20060;-82
2022/10/25 11:01:04;;;;;;;15.55;5.22;;;;;;;15.11;92.90;101596.03;5032829;28;20036;-83
2022/10/25 11:03:37;;;;;;;18.02;4.78;;;;;;;15.27;92.53;101637.44;5033001;28;20030;-82
2022/10/25 11:06:26;;;;;;;12.60;3.83;;;;;;;15.12;92.84;101632.34;5032882;28;20128;-84
2022/10/25 11:09:16;;;;;;;12.23;3.50;;;;;;;14.93;92.85;101631.94;5032721;28;20034;-80
2022/10/25 11:11:42;;;;;;;13.88;4.43;;;;;;;14.80;93.00;101633.72;5032909;28;20448;-83
2022/10/25 11:14:14;;;;;;;13.85;3.90;;;;;;;14.61;94.46;101616.75;5032706;28;20026;-84
2022/10/25 11:17:02;;;;;;;12.38;3.70;;;;;;;14.51;95.47;101605.31;5032620;28;20124;-85
2022/10/25 11:19:42;;;;;;;12.60;4.03;;;;;;;14.76;94.91;101637.47;5032762;28;20036;-86
2022/10/25 11:22:26;;;;;;;14.60;3.75;;;;;;;14.88;95.02;101636.63;5032742;28;20385;-85